sensor_id;sensor_type;location;lat;lon;timestamp;temperature;humidity
28524;DHT22;15734;50.904;6.922;2023-04-06T00:01:02;2.30;99.90
28524;DHT22;15734;50.904;6.922;2023-04-06T00:03:27;2.20;99.90
28524;DHT22;15734;50.904;6.922;2023-04-06T00:05:53;2.00;99.90
28524;DHT22;15734;50.904;6.922;2023-04-06T00:08:18;2.10;99.90
28524;DHT22;15734;50.904;6.922;2023-04-06T00:10:44;2.10;99.90
28524;DHT22;15734;50.904;6.922;2023-04-06T00:13:09;2.10;99.90
28524;DHT22;15734;50.904;6.922;2023-04-06T00:15:35;2.10;99.90
28524;DHT22;15734;50.904;6.922;2023-04-06T00:18:01;2.10;99.90
28524;DHT22;15734;50.904;6.922;2023-04-06T00:20:27;2.20;99.90
28524;DHT22;15734;50.904;6.922;2023-04-06T00:22:52;2.20;99.90
28524;DHT22;15734;50.904;6.922;2023-04-06T00:25:19;2.30;99.90
28524;DHT22;15734;50.904;6.922;2023-04-06T00:27:44;2.30;99.90
28524;DHT22;15734;50.904;6.922;2023-04-06T00:30:10;2.20;99.90
28524;DHT22;15734;50.904;6.922;2023-04-06T00:32:35;2.10;99.90
28524;DHT22;15734;50.904;6.922;2023-04-06T00:35:02;1.80;99.90
28524;DHT22;15734;50.904;6.922;2023-04-06T00:37:27;1.60;99.90
28524;DHT22;15734;50.904;6.922;2023-04-06T00:39:53;1.50;99.90
28524;DHT22;15734;50.904;6.922;2023-04-06T00:42:18;1.50;99.90
28524;DHT22;15734;50.904;6.922;2023-04-06T00:44:51;1.50;99.90
28524;DHT22;15734;50.904;6.922;2023-04-06T00:47:17;1.50;99.90
28524;DHT22;15734;50.904;6.922;2023-04-06T00:49:42;1.50;99.90
28524;DHT22;15734;50.904;6.922;2023-04-06T00:52:07;1.50;99.90
28524;DHT22;15734;50.904;6.922;2023-04-06T00:54:33;1.50;99.90
28524;DHT22;15734;50.904;6.922;2023-04-06T00:56:58;1.60;99.90
28524;DHT22;15734;50.904;6.922;2023-04-06T00:59:24;1.50;99.90
28524;DHT22;15734;50.904;6.922;2023-04-06T01:01:49;1.50;99.90
28524;DHT22;15734;50.904;6.922;2023-04-06T01:04:15;1.50;99.90
28524;DHT22;15734;50.904;6.922;2023-04-06T01:06:40;1.60;99.90
28524;DHT22;15734;50.904;6.922;2023-04-06T01:09:06;1.60;99.90
28524;DHT22;15734;50.904;6.922;2023-04-06T01:11:31;1.70;99.90
28524;DHT22;15734;50.904;6.922;2023-04-06T01:13:57;1.70;99.90
28524;DHT22;15734;50.904;6.922;2023-04-06T01:16:23;1.70;99.90
28524;DHT22;15734;50.904;6.922;2023-04-06T01:18:49;1.70;99.90
28524;DHT22;15734;50.904;6.922;2023-04-06T01:21:16;1.60;99.90
28524;DHT22;15734;50.904;6.922;2023-04-06T01:23:42;1.50;99.90
28524;DHT22;15734;50.904;6.922;2023-04-06T01:26:08;1.50;99.90
28524;DHT22;15734;50.904;6.922;2023-04-06T01:28:33;1.30;99.90
28524;DHT22;15734;50.904;6.922;2023-04-06T01:30:59;1.10;99.90
28524;DHT22;15734;50.904;6.922;2023-04-06T01:33:24;1.00;99.90
28524;DHT22;15734;50.904;6.922;2023-04-06T01:35:50;1.00;99.90
28524;DHT22;15734;50.904;6.922;2023-04-06T01:38:15;0.90;99.90
28524;DHT22;15734;50.904;6.922;2023-04-06T01:40:41;0.90;99.90
28524;DHT22;15734;50.904;6.922;2023-04-06T01:43:06;0.90;99.90
28524;DHT22;15734;50.904;6.922;2023-04-06T01:45:32;0.90;99.90
28524;DHT22;15734;50.904;6.922;2023-04-06T01:47:57;1.00;99.90
28524;DHT22;15734;50.904;6.922;2023-04-06T01:50:23;1.00;99.90
28524;DHT22;15734;50.904;6.922;2023-04-06T01:52:49;1.00;99.90
28524;DHT22;15734;50.904;6.922;2023-04-06T01:55:15;1.00;99.90
28524;DHT22;15734;50.904;6.922;2023-04-06T01:57:40;1.00;99.90
28524;DHT22;15734;50.904;6.922;2023-04-06T02:00:06;1.00;99.90
28524;DHT22;15734;50.904;6.922;2023-04-06T02:02:31;0.90;99.90
28524;DHT22;15734;50.904;6.922;2023-04-06T02:04:57;0.90;99.90
28524;DHT22;15734;50.904;6.922;2023-04-06T02:07:22;1.00;99.90
28524;DHT22;15734;50.904;6.922;2023-04-06T02:09:48;1.00;99.90
28524;DHT22;15734;50.904;6.922;2023-04-06T02:12:13;1.00;99.90
28524;DHT22;15734;50.904;6.922;2023-04-06T02:14:39;1.00;99.90
28524;DHT22;15734;50.904;6.922;2023-04-06T02:17:04;0.90;99.90
28524;DHT22;15734;50.904;6.922;2023-04-06T02:19:30;0.90;99.90
28524;DHT22;15734;50.904;6.922;2023-04-06T02:21:55;0.80;99.90
28524;DHT22;15734;50.904;6.922;2023-04-06T02:24:21;0.80;99.90
28524;DHT22;15734;50.904;6.922;2023-04-06T02:26:46;0.80;99.90
28524;DHT22;15734;50.904;6.922;2023-04-06T02:29:12;0.80;99.90
28524;DHT22;15734;50.904;6.922;2023-04-06T02:31:37;0.80;99.90
28524;DHT22;15734;50.904;6.922;2023-04-06T02:34:03;0.80;99.90
28524;DHT22;15734;50.904;6.922;2023-04-06T02:36:28;0.90;99.90
28524;DHT22;15734;50.904;6.922;2023-04-06T02:38:53;1.00;99.90
28524;DHT22;15734;50.904;6.922;2023-04-06T02:41:19;0.90;99.90
28524;DHT22;15734;50.904;6.922;2023-04-06T02:43:44;0.90;99.90
28524;DHT22;15734;50.904;6.922;2023-04-06T02:46:10;0.80;99.90
28524;DHT22;15734;50.904;6.922;2023-04-06T02:48:35;0.70;99.90
28524;DHT22;15734;50.904;6.922;2023-04-06T02:51:02;0.60;99.90
28524;DHT22;15734;50.904;6.922;2023-04-06T02:53:27;0.60;99.90
28524;DHT22;15734;50.904;6.922;2023-04-06T02:55:53;0.60;99.90
28524;DHT22;15734;50.904;6.922;2023-04-06T02:58:18;0.60;99.90
28524;DHT22;15734;50.904;6.922;2023-04-06T03:00:45;0.60;99.90
28524;DHT22;15734;50.904;6.922;2023-04-06T03:03:10;0.60;99.90
28524;DHT22;15734;50.904;6.922;2023-04-06T03:05:35;0.60;99.90
28524;DHT22;15734;50.904;6.922;2023-04-06T03:08:01;0.60;99.90
28524;DHT22;15734;50.904;6.922;2023-04-06T03:10:26;0.60;99.90
28524;DHT22;15734;50.904;6.922;2023-04-06T03:12:52;0.70;99.90
28524;DHT22;15734;50.904;6.922;2023-04-06T03:15:17;0.60;99.90
28524;DHT22;15734;50.904;6.922;2023-04-06T03:17:43;0.60;99.90
28524;DHT22;15734;50.904;6.922;2023-04-06T03:20:08;0.50;99.90
28524;DHT22;15734;50.904;6.922;2023-04-06T03:22:34;0.40;99.90
28524;DHT22;15734;50.904;6.922;2023-04-06T03:24:59;0.40;99.90
28524;DHT22;15734;50.904;6.922;2023-04-06T03:27:25;0.50;99.90
28524;DHT22;15734;50.904;6.922;2023-04-06T03:29:50;0.50;99.90
28524;DHT22;15734;50.904;6.922;2023-04-06T03:32:15;0.50;99.90
28524;DHT22;15734;50.904;6.922;2023-04-06T03:34:41;0.60;99.90
28524;DHT22;15734;50.904;6.922;2023-04-06T03:37:06;0.70;99.90
28524;DHT22;15734;50.904;6.922;2023-04-06T03:39:32;0.60;99.90
28524;DHT22;15734;50.904;6.922;2023-04-06T03:41:57;0.60;99.90
28524;DHT22;15734;50.904;6.922;2023-04-06T03:44:23;0.50;99.90
28524;DHT22;15734;50.904;6.922;2023-04-06T03:46:48;0.50;99.90
28524;DHT22;15734;50.904;6.922;2023-04-06T03:49:14;0.40;99.90
28524;DHT22;15734;50.904;6.922;2023-04-06T03:51:39;0.40;99.90
28524;DHT22;15734;50.904;6.922;2023-04-06T03:54:05;0.30;99.90
28524;DHT22;15734;50.904;6.922;2023-04-06T03:56:30;0.30;99.90
28524;DHT22;15734;50.904;6.922;2023-04-06T03:58:56;0.30;99.90
28524;DHT22;15734;50.904;6.922;2023-04-06T04:01:21;0.30;99.90
28524;DHT22;15734;50.904;6.922;2023-04-06T04:03:47;0.20;99.90
28524;DHT22;15734;50.904;6.922;2023-04-06T04:06:12;0.30;99.90
28524;DHT22;15734;50.904;6.922;2023-04-06T04:08:38;0.40;99.90
28524;DHT22;15734;50.904;6.922;2023-04-06T04:11:03;0.40;99.90
28524;DHT22;15734;50.904;6.922;2023-04-06T04:13:29;0.50;99.90
28524;DHT22;15734;50.904;6.922;2023-04-06T04:15:54;0.60;99.90
28524;DHT22;15734;50.904;6.922;2023-04-06T04:18:20;0.70;99.90
28524;DHT22;15734;50.904;6.922;2023-04-06T04:20:45;0.70;99.90
28524;DHT22;15734;50.904;6.922;2023-04-06T04:23:11;0.80;99.90
28524;DHT22;15734;50.904;6.922;2023-04-06T04:25:36;0.70;99.90
28524;DHT22;15734;50.904;6.922;2023-04-06T04:28:02;0.60;99.90
28524;DHT22;15734;50.904;6.922;2023-04-06T04:30:27;0.50;99.90
28524;DHT22;15734;50.904;6.922;2023-04-06T04:32:52;0.40;99.90
28524;DHT22;15734;50.904;6.922;2023-04-06T04:35:18;0.40;99.90
28524;DHT22;15734;50.904;6.922;2023-04-06T04:37:43;0.40;99.90
28524;DHT22;15734;50.904;6.922;2023-04-06T04:40:09;0.50;99.90
28524;DHT22;15734;50.904;6.922;2023-04-06T04:42:35;0.50;99.90
28524;DHT22;15734;50.904;6.922;2023-04-06T04:45:00;0.60;99.90
28524;DHT22;15734;50.904;6.922;2023-04-06T04:47:26;0.60;99.90
28524;DHT22;15734;50.904;6.922;2023-04-06T04:49:51;0.50;99.90
28524;DHT22;15734;50.904;6.922;2023-04-06T04:52:16;0.40;99.90
28524;DHT22;15734;50.904;6.922;2023-04-06T04:54:42;0.40;99.90
28524;DHT22;15734;50.904;6.922;2023-04-06T04:57:07;0.40;99.90
28524;DHT22;15734;50.904;6.922;2023-04-06T04:59:34;0.30;99.90
28524;DHT22;15734;50.904;6.922;2023-04-06T05:01:59;0.30;99.90
28524;DHT22;15734;50.904;6.922;2023-04-06T05:04:25;0.30;99.90
28524;DHT22;15734;50.904;6.922;2023-04-06T05:06:50;0.30;99.90
28524;DHT22;15734;50.904;6.922;2023-04-06T05:09:16;0.30;99.90
28524;DHT22;15734;50.904;6.922;2023-04-06T05:11:42;0.20;99.90
28524;DHT22;15734;50.904;6.922;2023-04-06T05:14:08;0.20;99.90
28524;DHT22;15734;50.904;6.922;2023-04-06T05:16:33;0.20;99.90
28524;DHT22;15734;50.904;6.922;2023-04-06T05:18:59;0.30;99.90
28524;DHT22;15734;50.904;6.922;2023-04-06T05:21:24;0.40;99.90
28524;DHT22;15734;50.904;6.922;2023-04-06T05:23:51;0.50;99.90
28524;DHT22;15734;50.904;6.922;2023-04-06T05:26:16;0.50;99.90
28524;DHT22;15734;50.904;6.922;2023-04-06T05:28:42;0.60;99.90
28524;DHT22;15734;50.904;6.922;2023-04-06T05:31:09;0.50;99.90
28524;DHT22;15734;50.904;6.922;2023-04-06T05:33:35;0.60;99.90
28524;DHT22;15734;50.904;6.922;2023-04-06T05:36:00;0.60;99.90
28524;DHT22;15734;50.904;6.922;2023-04-06T05:38:26;0.60;99.90
28524;DHT22;15734;50.904;6.922;2023-04-06T05:40:51;0.70;99.90
28524;DHT22;15734;50.904;6.922;2023-04-06T05:43:17;0.80;99.90
28524;DHT22;15734;50.904;6.922;2023-04-06T05:45:45;0.90;99.90
28524;DHT22;15734;50.904;6.922;2023-04-06T05:48:10;1.00;99.90
28524;DHT22;15734;50.904;6.922;2023-04-06T05:50:36;1.00;99.90
28524;DHT22;15734;50.904;6.922;2023-04-06T05:53:01;1.10;99.90
28524;DHT22;15734;50.904;6.922;2023-04-06T05:55:27;1.10;99.90
28524;DHT22;15734;50.904;6.922;2023-04-06T05:57:53;1.10;99.90
28524;DHT22;15734;50.904;6.922;2023-04-06T06:00:18;1.20;99.90
28524;DHT22;15734;50.904;6.922;2023-04-06T06:02:44;1.30;99.90
28524;DHT22;15734;50.904;6.922;2023-04-06T06:05:10;1.40;99.90
28524;DHT22;15734;50.904;6.922;2023-04-06T06:07:36;1.40;99.90
28524;DHT22;15734;50.904;6.922;2023-04-06T06:10:01;1.60;99.90
28524;DHT22;15734;50.904;6.922;2023-04-06T06:12:27;1.60;99.90
28524;DHT22;15734;50.904;6.922;2023-04-06T06:14:52;1.80;99.90
28524;DHT22;15734;50.904;6.922;2023-04-06T06:17:18;1.80;99.90
28524;DHT22;15734;50.904;6.922;2023-04-06T06:19:43;1.90;99.90
28524;DHT22;15734;50.904;6.922;2023-04-06T06:22:09;2.00;99.90
28524;DHT22;15734;50.904;6.922;2023-04-06T06:24:34;2.10;99.90
28524;DHT22;15734;50.904;6.922;2023-04-06T06:27:00;2.20;99.90
28524;DHT22;15734;50.904;6.922;2023-04-06T06:29:25;2.20;99.90
28524;DHT22;15734;50.904;6.922;2023-04-06T06:31:51;2.30;99.90
28524;DHT22;15734;50.904;6.922;2023-04-06T06:34:16;2.40;99.90
28524;DHT22;15734;50.904;6.922;2023-04-06T06:36:41;2.50;99.90
28524;DHT22;15734;50.904;6.922;2023-04-06T06:39:07;2.60;99.90
28524;DHT22;15734;50.904;6.922;2023-04-06T06:41:32;2.80;99.90
28524;DHT22;15734;50.904;6.922;2023-04-06T06:43:58;2.90;99.90
28524;DHT22;15734;50.904;6.922;2023-04-06T06:46:23;3.00;99.90
28524;DHT22;15734;50.904;6.922;2023-04-06T06:48:49;3.10;99.90
28524;DHT22;15734;50.904;6.922;2023-04-06T06:51:14;3.20;99.90
28524;DHT22;15734;50.904;6.922;2023-04-06T06:53:40;3.30;99.90
28524;DHT22;15734;50.904;6.922;2023-04-06T06:56:06;3.50;99.90
28524;DHT22;15734;50.904;6.922;2023-04-06T06:58:31;3.60;99.90
28524;DHT22;15734;50.904;6.922;2023-04-06T07:00:57;3.80;99.90
28524;DHT22;15734;50.904;6.922;2023-04-06T07:03:23;3.90;99.90
28524;DHT22;15734;50.904;6.922;2023-04-06T07:05:49;4.00;99.90
28524;DHT22;15734;50.904;6.922;2023-04-06T07:08:21;4.20;99.90
28524;DHT22;15734;50.904;6.922;2023-04-06T07:10:47;4.40;99.90
28524;DHT22;15734;50.904;6.922;2023-04-06T07:13:13;4.60;99.90
28524;DHT22;15734;50.904;6.922;2023-04-06T07:15:44;4.70;99.90
28524;DHT22;15734;50.904;6.922;2023-04-06T07:18:09;4.90;99.90
28524;DHT22;15734;50.904;6.922;2023-04-06T07:20:35;5.10;99.90
28524;DHT22;15734;50.904;6.922;2023-04-06T07:23:00;5.20;99.90
28524;DHT22;15734;50.904;6.922;2023-04-06T07:25:27;5.40;99.90
28524;DHT22;15734;50.904;6.922;2023-04-06T07:27:53;5.60;99.90
28524;DHT22;15734;50.904;6.922;2023-04-06T07:30:18;5.70;99.90
28524;DHT22;15734;50.904;6.922;2023-04-06T07:32:46;5.90;99.90
28524;DHT22;15734;50.904;6.922;2023-04-06T07:35:11;6.00;99.90
28524;DHT22;15734;50.904;6.922;2023-04-06T07:37:37;6.20;99.90
28524;DHT22;15734;50.904;6.922;2023-04-06T07:40:02;6.20;99.90
28524;DHT22;15734;50.904;6.922;2023-04-06T07:42:28;6.30;99.90
28524;DHT22;15734;50.904;6.922;2023-04-06T07:44:53;6.40;99.90
28524;DHT22;15734;50.904;6.922;2023-04-06T07:47:19;6.50;99.90
28524;DHT22;15734;50.904;6.922;2023-04-06T07:49:44;6.60;99.90
28524;DHT22;15734;50.904;6.922;2023-04-06T07:52:10;6.70;99.90
28524;DHT22;15734;50.904;6.922;2023-04-06T07:54:35;6.80;99.90
28524;DHT22;15734;50.904;6.922;2023-04-06T07:57:01;6.90;99.90
28524;DHT22;15734;50.904;6.922;2023-04-06T07:59:26;6.90;99.90
28524;DHT22;15734;50.904;6.922;2023-04-06T08:01:52;7.00;99.90
28524;DHT22;15734;50.904;6.922;2023-04-06T08:04:17;7.10;99.90
28524;DHT22;15734;50.904;6.922;2023-04-06T08:06:43;7.20;99.90
28524;DHT22;15734;50.904;6.922;2023-04-06T08:09:08;7.30;99.90
28524;DHT22;15734;50.904;6.922;2023-04-06T08:11:33;7.40;99.90
28524;DHT22;15734;50.904;6.922;2023-04-06T08:13:59;7.60;99.90
28524;DHT22;15734;50.904;6.922;2023-04-06T08:16:25;7.70;99.90
28524;DHT22;15734;50.904;6.922;2023-04-06T08:18:50;7.90;99.90
28524;DHT22;15734;50.904;6.922;2023-04-06T08:21:16;8.00;99.90
28524;DHT22;15734;50.904;6.922;2023-04-06T08:23:41;8.10;99.90
28524;DHT22;15734;50.904;6.922;2023-04-06T08:26:06;8.20;99.90
28524;DHT22;15734;50.904;6.922;2023-04-06T08:28:32;8.20;99.90
28524;DHT22;15734;50.904;6.922;2023-04-06T08:31:02;8.30;99.90
28524;DHT22;15734;50.904;6.922;2023-04-06T08:33:28;8.40;99.90
28524;DHT22;15734;50.904;6.922;2023-04-06T08:35:53;8.50;99.90
28524;DHT22;15734;50.904;6.922;2023-04-06T08:38:19;8.60;99.90
28524;DHT22;15734;50.904;6.922;2023-04-06T08:40:44;8.60;99.90
28524;DHT22;15734;50.904;6.922;2023-04-06T08:43:13;8.70;99.90
28524;DHT22;15734;50.904;6.922;2023-04-06T08:45:38;8.90;99.90
28524;DHT22;15734;50.904;6.922;2023-04-06T08:48:04;9.10;99.90
28524;DHT22;15734;50.904;6.922;2023-04-06T08:50:32;9.20;99.90
28524;DHT22;15734;50.904;6.922;2023-04-06T08:52:57;9.40;99.90
28524;DHT22;15734;50.904;6.922;2023-04-06T08:55:24;9.60;99.90
28524;DHT22;15734;50.904;6.922;2023-04-06T08:57:50;9.70;99.90
28524;DHT22;15734;50.904;6.922;2023-04-06T09:00:18;9.80;99.90
28524;DHT22;15734;50.904;6.922;2023-04-06T09:02:45;10.00;99.90
28524;DHT22;15734;50.904;6.922;2023-04-06T09:05:10;10.10;99.90
28524;DHT22;15734;50.904;6.922;2023-04-06T09:07:36;10.30;99.90
28524;DHT22;15734;50.904;6.922;2023-04-06T09:10:02;10.40;99.90
28524;DHT22;15734;50.904;6.922;2023-04-06T09:12:29;10.60;99.90
28524;DHT22;15734;50.904;6.922;2023-04-06T09:14:55;10.80;99.90
28524;DHT22;15734;50.904;6.922;2023-04-06T09:17:21;11.00;99.90
28524;DHT22;15734;50.904;6.922;2023-04-06T09:19:47;11.20;99.90
28524;DHT22;15734;50.904;6.922;2023-04-06T09:22:13;11.30;99.90
28524;DHT22;15734;50.904;6.922;2023-04-06T09:24:39;11.30;99.90
28524;DHT22;15734;50.904;6.922;2023-04-06T09:27:04;11.40;99.90
28524;DHT22;15734;50.904;6.922;2023-04-06T09:29:30;11.30;99.90
28524;DHT22;15734;50.904;6.922;2023-04-06T09:32:05;11.40;99.90
28524;DHT22;15734;50.904;6.922;2023-04-06T09:34:31;11.40;99.90
28524;DHT22;15734;50.904;6.922;2023-04-06T09:36:57;11.60;99.90
28524;DHT22;15734;50.904;6.922;2023-04-06T09:39:23;11.60;99.90
28524;DHT22;15734;50.904;6.922;2023-04-06T09:41:52;11.60;99.90
28524;DHT22;15734;50.904;6.922;2023-04-06T09:44:19;11.80;99.90
28524;DHT22;15734;50.904;6.922;2023-04-06T09:46:46;12.00;99.90
28524;DHT22;15734;50.904;6.922;2023-04-06T09:49:12;12.10;99.90
28524;DHT22;15734;50.904;6.922;2023-04-06T09:51:38;12.30;99.90
28524;DHT22;15734;50.904;6.922;2023-04-06T09:54:03;12.30;99.90
28524;DHT22;15734;50.904;6.922;2023-04-06T09:56:45;12.40;99.90
28524;DHT22;15734;50.904;6.922;2023-04-06T09:59:14;12.50;99.90
28524;DHT22;15734;50.904;6.922;2023-04-06T10:01:41;12.50;99.90
28524;DHT22;15734;50.904;6.922;2023-04-06T10:04:10;12.50;99.90
28524;DHT22;15734;50.904;6.922;2023-04-06T10:06:38;12.70;99.90
28524;DHT22;15734;50.904;6.922;2023-04-06T10:09:04;12.90;99.90
28524;DHT22;15734;50.904;6.922;2023-04-06T10:11:30;13.10;99.90
28524;DHT22;15734;50.904;6.922;2023-04-06T10:13:56;13.10;99.90
28524;DHT22;15734;50.904;6.922;2023-04-06T10:16:22;13.10;99.90
28524;DHT22;15734;50.904;6.922;2023-04-06T10:18:50;12.90;99.90
28524;DHT22;15734;50.904;6.922;2023-04-06T10:21:20;13.10;99.90
28524;DHT22;15734;50.904;6.922;2023-04-06T10:23:49;13.40;99.90
28524;DHT22;15734;50.904;6.922;2023-04-06T10:26:16;13.40;99.90
28524;DHT22;15734;50.904;6.922;2023-04-06T10:28:43;13.40;99.90
28524;DHT22;15734;50.904;6.922;2023-04-06T10:31:09;13.20;99.90
28524;DHT22;15734;50.904;6.922;2023-04-06T10:33:35;13.40;99.90
28524;DHT22;15734;50.904;6.922;2023-04-06T10:36:10;13.50;99.90
28524;DHT22;15734;50.904;6.922;2023-04-06T10:38:37;13.40;99.90
28524;DHT22;15734;50.904;6.922;2023-04-06T10:41:06;13.40;99.90
28524;DHT22;15734;50.904;6.922;2023-04-06T10:43:35;13.40;99.90
28524;DHT22;15734;50.904;6.922;2023-04-06T10:46:02;13.50;99.90
28524;DHT22;15734;50.904;6.922;2023-04-06T10:48:46;13.70;99.90
28524;DHT22;15734;50.904;6.922;2023-04-06T10:51:18;13.70;99.90
28524;DHT22;15734;50.904;6.922;2023-04-06T10:53:47;13.90;99.90
28524;DHT22;15734;50.904;6.922;2023-04-06T10:56:14;13.80;99.90
28524;DHT22;15734;50.904;6.922;2023-04-06T10:58:58;13.60;99.90
28524;DHT22;15734;50.904;6.922;2023-04-06T11:01:23;13.70;99.90
28524;DHT22;15734;50.904;6.922;2023-04-06T11:03:51;13.80;99.90
28524;DHT22;15734;50.904;6.922;2023-04-06T11:06:25;13.90;99.90
28524;DHT22;15734;50.904;6.922;2023-04-06T11:08:51;13.80;99.90
28524;DHT22;15734;50.904;6.922;2023-04-06T11:11:17;13.50;99.90
28524;DHT22;15734;50.904;6.922;2023-04-06T11:13:44;13.50;99.90
28524;DHT22;15734;50.904;6.922;2023-04-06T11:16:13;13.70;99.90
28524;DHT22;15734;50.904;6.922;2023-04-06T11:21:13;13.70;99.90
28524;DHT22;15734;50.904;6.922;2023-04-06T11:23:39;13.80;99.90
28524;DHT22;15734;50.904;6.922;2023-04-06T11:26:09;13.70;99.90
28524;DHT22;15734;50.904;6.922;2023-04-06T11:28:35;13.80;99.90
28524;DHT22;15734;50.904;6.922;2023-04-06T11:31:01;13.60;99.70
28524;DHT22;15734;50.904;6.922;2023-04-06T11:33:26;13.70;99.90
28524;DHT22;15734;50.904;6.922;2023-04-06T11:35:52;13.80;99.90
28524;DHT22;15734;50.904;6.922;2023-04-06T11:38:18;13.90;99.90
28524;DHT22;15734;50.904;6.922;2023-04-06T11:40:44;13.90;99.90
28524;DHT22;15734;50.904;6.922;2023-04-06T11:43:11;13.90;99.10
28524;DHT22;15734;50.904;6.922;2023-04-06T11:45:40;13.90;99.90
28524;DHT22;15734;50.904;6.922;2023-04-06T11:48:06;14.10;99.10
28524;DHT22;15734;50.904;6.922;2023-04-06T11:50:42;14.10;99.90
28524;DHT22;15734;50.904;6.922;2023-04-06T11:53:07;14.20;99.20
28524;DHT22;15734;50.904;6.922;2023-04-06T11:55:37;14.20;99.60
28524;DHT22;15734;50.904;6.922;2023-04-06T11:58:03;14.30;99.90
28524;DHT22;15734;50.904;6.922;2023-04-06T12:00:28;14.30;97.90
28524;DHT22;15734;50.904;6.922;2023-04-06T12:02:59;14.50;98.50
28524;DHT22;15734;50.904;6.922;2023-04-06T12:05:25;14.50;99.00
28524;DHT22;15734;50.904;6.922;2023-04-06T12:07:50;14.50;98.10
28524;DHT22;15734;50.904;6.922;2023-04-06T12:10:16;14.50;98.50
28524;DHT22;15734;50.904;6.922;2023-04-06T12:12:41;14.40;96.40
28524;DHT22;15734;50.904;6.922;2023-04-06T12:15:07;14.40;96.70
28524;DHT22;15734;50.904;6.922;2023-04-06T12:17:32;14.60;97.50
28524;DHT22;15734;50.904;6.922;2023-04-06T12:19:58;14.20;96.30
28524;DHT22;15734;50.904;6.922;2023-04-06T12:22:23;14.20;96.70
28524;DHT22;15734;50.904;6.922;2023-04-06T12:24:49;14.10;95.90
28524;DHT22;15734;50.904;6.922;2023-04-06T12:27:14;14.30;96.70
28524;DHT22;15734;50.904;6.922;2023-04-06T12:29:40;14.20;96.90
28524;DHT22;15734;50.904;6.922;2023-04-06T12:32:05;14.20;97.10
28524;DHT22;15734;50.904;6.922;2023-04-06T12:34:31;14.40;97.70
28524;DHT22;15734;50.904;6.922;2023-04-06T12:36:56;14.30;97.90
28524;DHT22;15734;50.904;6.922;2023-04-06T12:39:22;14.10;97.50
28524;DHT22;15734;50.904;6.922;2023-04-06T12:41:48;14.10;97.20
28524;DHT22;15734;50.904;6.922;2023-04-06T12:44:13;14.10;97.60
28524;DHT22;15734;50.904;6.922;2023-04-06T12:46:39;14.30;98.80
28524;DHT22;15734;50.904;6.922;2023-04-06T12:49:04;14.30;97.80
28524;DHT22;15734;50.904;6.922;2023-04-06T12:51:30;14.20;98.40
28524;DHT22;15734;50.904;6.922;2023-04-06T12:53:56;14.30;98.10
28524;DHT22;15734;50.904;6.922;2023-04-06T12:56:22;14.10;98.30
28524;DHT22;15734;50.904;6.922;2023-04-06T12:58:47;14.20;98.60
28524;DHT22;15734;50.904;6.922;2023-04-06T13:01:13;14.10;99.20
28524;DHT22;15734;50.904;6.922;2023-04-06T13:03:39;14.00;99.10
28524;DHT22;15734;50.904;6.922;2023-04-06T13:06:05;14.00;99.90
28524;DHT22;15734;50.904;6.922;2023-04-06T13:08:30;13.70;99.90
28524;DHT22;15734;50.904;6.922;2023-04-06T13:10:56;13.40;99.90
28524;DHT22;15734;50.904;6.922;2023-04-06T13:13:25;13.50;99.90
28524;DHT22;15734;50.904;6.922;2023-04-06T13:15:51;13.50;99.90
28524;DHT22;15734;50.904;6.922;2023-04-06T13:18:17;13.40;99.90
28524;DHT22;15734;50.904;6.922;2023-04-06T13:20:42;13.40;99.90
28524;DHT22;15734;50.904;6.922;2023-04-06T13:23:08;13.30;99.90
28524;DHT22;15734;50.904;6.922;2023-04-06T13:25:33;13.10;99.90
28524;DHT22;15734;50.904;6.922;2023-04-06T13:27:59;13.30;99.90
28524;DHT22;15734;50.904;6.922;2023-04-06T13:30:25;13.30;99.90
28524;DHT22;15734;50.904;6.922;2023-04-06T13:32:50;13.10;99.90
28524;DHT22;15734;50.904;6.922;2023-04-06T13:35:16;13.10;99.90
28524;DHT22;15734;50.904;6.922;2023-04-06T13:37:42;12.90;99.90
28524;DHT22;15734;50.904;6.922;2023-04-06T13:40:07;12.80;99.90
28524;DHT22;15734;50.904;6.922;2023-04-06T13:42:33;12.40;99.90
28524;DHT22;15734;50.904;6.922;2023-04-06T13:45:00;12.40;99.90
28524;DHT22;15734;50.904;6.922;2023-04-06T13:47:26;12.30;99.90
28524;DHT22;15734;50.904;6.922;2023-04-06T13:49:51;12.10;99.90
28524;DHT22;15734;50.904;6.922;2023-04-06T13:52:18;12.10;99.90
28524;DHT22;15734;50.904;6.922;2023-04-06T13:54:44;11.90;99.90
28524;DHT22;15734;50.904;6.922;2023-04-06T13:57:09;11.90;99.90
28524;DHT22;15734;50.904;6.922;2023-04-06T13:59:35;11.90;99.90
28524;DHT22;15734;50.904;6.922;2023-04-06T14:02:01;11.70;99.90
28524;DHT22;15734;50.904;6.922;2023-04-06T14:04:27;11.80;99.90
28524;DHT22;15734;50.904;6.922;2023-04-06T14:06:52;11.80;99.90
28524;DHT22;15734;50.904;6.922;2023-04-06T14:09:18;11.90;99.90
28524;DHT22;15734;50.904;6.922;2023-04-06T14:11:43;11.90;99.90
28524;DHT22;15734;50.904;6.922;2023-04-06T14:14:08;11.80;99.90
28524;DHT22;15734;50.904;6.922;2023-04-06T14:16:34;12.00;99.90
28524;DHT22;15734;50.904;6.922;2023-04-06T14:19:00;12.00;99.90
28524;DHT22;15734;50.904;6.922;2023-04-06T14:21:26;11.80;99.90
28524;DHT22;15734;50.904;6.922;2023-04-06T14:23:51;11.70;99.90
28524;DHT22;15734;50.904;6.922;2023-04-06T14:26:17;11.70;99.90
28524;DHT22;15734;50.904;6.922;2023-04-06T14:28:44;11.60;99.90
28524;DHT22;15734;50.904;6.922;2023-04-06T14:31:11;11.50;99.90
28524;DHT22;15734;50.904;6.922;2023-04-06T14:33:37;11.50;99.90
28524;DHT22;15734;50.904;6.922;2023-04-06T14:36:03;11.60;99.90
28524;DHT22;15734;50.904;6.922;2023-04-06T14:38:28;11.50;99.90
28524;DHT22;15734;50.904;6.922;2023-04-06T14:40:54;11.30;99.90
28524;DHT22;15734;50.904;6.922;2023-04-06T14:43:20;11.40;99.90
28524;DHT22;15734;50.904;6.922;2023-04-06T14:45:46;11.40;99.90
28524;DHT22;15734;50.904;6.922;2023-04-06T14:48:12;11.40;99.90
28524;DHT22;15734;50.904;6.922;2023-04-06T14:50:40;11.40;99.90
28524;DHT22;15734;50.904;6.922;2023-04-06T14:53:06;11.20;99.90
28524;DHT22;15734;50.904;6.922;2023-04-06T14:55:31;11.10;99.90
28524;DHT22;15734;50.904;6.922;2023-04-06T14:57:57;10.90;99.90
28524;DHT22;15734;50.904;6.922;2023-04-06T15:00:22;10.80;99.90
28524;DHT22;15734;50.904;6.922;2023-04-06T15:02:48;10.80;99.90
28524;DHT22;15734;50.904;6.922;2023-04-06T15:05:13;10.80;99.90
28524;DHT22;15734;50.904;6.922;2023-04-06T15:07:39;10.70;99.90
28524;DHT22;15734;50.904;6.922;2023-04-06T15:10:05;10.70;99.90
28524;DHT22;15734;50.904;6.922;2023-04-06T15:12:30;10.50;99.90
28524;DHT22;15734;50.904;6.922;2023-04-06T15:14:57;10.40;99.90
28524;DHT22;15734;50.904;6.922;2023-04-06T15:17:22;10.30;99.90
28524;DHT22;15734;50.904;6.922;2023-04-06T15:19:48;10.20;99.90
28524;DHT22;15734;50.904;6.922;2023-04-06T15:22:13;10.20;99.90
28524;DHT22;15734;50.904;6.922;2023-04-06T15:24:39;10.20;99.90
28524;DHT22;15734;50.904;6.922;2023-04-06T15:27:04;10.10;99.90
28524;DHT22;15734;50.904;6.922;2023-04-06T15:29:30;10.10;99.90
28524;DHT22;15734;50.904;6.922;2023-04-06T15:31:56;9.90;99.90
28524;DHT22;15734;50.904;6.922;2023-04-06T15:34:21;10.00;99.90